Time;durP1;ratioP1;P1;durP2;ratioP2;P2;SDS_P1;SDS_P2;PMS_P1;PMS_P2;Temp;Humidity;BMP_temperature;BMP_pressure;BME280_temperature;BME280_humidity;BME280_pressure;Samples;Min_cycle;Max_cycle;Signal;HPM_P1;HPM_P2
2023/03/24 00:00:19;;;;;;;2.85;2.10;;;;;;;;;;5094195;28;20048;-90
2023/03/24 00:02:47;;;;;;;3.08;1.52;;;;;;;;;;5094367;28;20076;-89
2023/03/24 00:05:17;;;;;;;4.47;2.20;;;;;;;;;;5094092;28;20105;-90
2023/03/24 00:07:45;;;;;;;3.30;1.95;;;;;;;;;;5095371;28;20051;-90
2023/03/24 00:10:14;;;;;;;4.40;2.08;;;;;;;;;;5094203;28;20047;-90
2023/03/24 00:12:41;;;;;;;3.47;1.80;;;;;;;;;;5109823;28;20040;-89
2023/03/24 00:15:10;;;;;;;2.40;2.20;;;;;;;;;;5096962;28;20055;-88
2023/03/24 00:17:38;;;;;;;2.88;1.63;;;;;;;;;;5096933;28;20048;-88
2023/03/24 00:20:07;;;;;;;2.85;1.88;;;;;;;;;;5093878;28;20048;-89
2023/03/24 00:22:35;;;;;;;2.55;1.92;;;;;;;;;;5093966;28;20504;-88
2023/03/24 00:25:03;;;;;;;2.13;2.03;;;;;;;;;;5093828;28;20044;-90
2023/03/24 00:27:35;;;;;;;2.20;1.83;;;;;;;;;;5095559;28;20043;-90
2023/03/24 00:30:07;;;;;;;5.57;2.28;;;;;;;;;;5093672;28;20057;-89
2023/03/24 00:32:37;;;;;;;2.40;2.20;;;;;;;;;;5093658;28;20414;-89
2023/03/24 00:35:07;;;;;;;2.03;1.83;;;;;;;;;;5093555;28;20101;-89
2023/03/24 00:37:38;;;;;;;2.45;2.20;;;;;;;;;;5093549;28;20048;-90
2023/03/24 00:40:08;;;;;;;2.35;1.90;;;;;;;;;;5094783;28;20048;-89
2023/03/24 00:42:35;;;;;;;2.35;2.10;;;;;;;;;;5093595;28;20048;-89
2023/03/24 00:45:03;;;;;;;5.55;2.08;;;;;;;;;;5094260;28;20048;-90
2023/03/24 00:47:35;;;;;;;1.95;1.80;;;;;;;;;;5093199;28;20039;-88
2023/03/24 00:50:07;;;;;;;5.78;2.20;;;;;;;;;;5093383;28;20087;-89
2023/03/24 00:52:35;;;;;;;2.72;2.00;;;;;;;;;;5093201;28;20131;-89
2023/03/24 00:55:04;;;;;;;1.98;1.73;;;;;;;;;;5093650;28;20059;-89
2023/03/24 00:57:35;;;;;;;3.10;1.98;;;;;;;;;;5093179;28;20476;-89
2023/03/24 01:00:17;;;;;;;2.25;2.15;;;;;;;;;;5093209;28;20075;-89
2023/03/24 01:02:45;;;;;;;4.18;1.75;;;;;;;;;;5093597;28;20048;-89
2023/03/24 01:05:13;;;;;;;2.88;2.05;;;;;;;;;;5092604;28;20105;-89
2023/03/24 01:07:41;;;;;;;1.80;1.70;;;;;;;;;;5093304;28;20064;-90
2023/03/24 01:10:11;;;;;;;3.50;2.30;;;;;;;;;;5093102;28;20409;-89
2023/03/24 01:12:39;;;;;;;3.88;2.17;;;;;;;;;;5092660;28;20090;-90
2023/03/24 01:15:17;;;;;;;2.08;1.98;;;;;;;;;;5092987;28;20146;-90
2023/03/24 01:17:45;;;;;;;5.00;2.03;;;;;;;;;;5093115;28;20086;-90
2023/03/24 01:20:13;;;;;;;3.40;2.35;;;;;;;;;;5092989;28;20541;-90
2023/03/24 01:22:43;;;;;;;2.75;2.55;;;;;;;;;;5092795;28;20075;-89
2023/03/24 01:25:15;;;;;;;4.80;2.63;;;;;;;;;;5093055;28;20066;-90
2023/03/24 01:27:43;;;;;;;2.78;2.58;;;;;;;;;;5106425;28;20048;-89
2023/03/24 01:30:14;;;;;;;4.95;2.40;;;;;;;;;;5092828;28;20543;-89
2023/03/24 01:32:42;;;;;;;2.63;2.42;;;;;;;;;;5092690;28;20048;-90
2023/03/24 01:35:10;;;;;;;2.63;2.42;;;;;;;;;;5092804;28;20098;-89
2023/03/24 01:37:38;;;;;;;8.07;2.58;;;;;;;;;;5092463;28;20131;-89
2023/03/24 01:40:08;;;;;;;3.85;2.60;;;;;;;;;;5092405;28;20127;-90
2023/03/24 01:42:36;;;;;;;4.40;2.90;;;;;;;;;;5092864;28;20048;-90
2023/03/24 01:45:22;;;;;;;4.68;3.20;;;;;;;;;;5092591;28;20134;-89
2023/03/24 01:47:49;;;;;;;2.92;2.72;;;;;;;;;;5092603;28;20058;-89
2023/03/24 01:50:17;;;;;;;5.18;2.95;;;;;;;;;;5091146;28;20044;-89
2023/03/24 01:52:44;;;;;;;7.22;3.38;;;;;;;;;;5093890;28;20060;-88
2023/03/24 01:55:17;;;;;;;7.53;2.90;;;;;;;;;;5096443;28;20062;-88
2023/03/24 01:57:47;;;;;;;5.30;3.22;;;;;;;;;;5096626;28;20499;-88
2023/03/24 02:00:18;;;;;;;6.15;3.30;;;;;;;;;;5096738;28;20450;-89
2023/03/24 02:02:48;;;;;;;6.50;3.33;;;;;;;;;;5096801;28;20131;-89
2023/03/24 02:05:15;;;;;;;8.25;3.20;;;;;;;;;;5096367;28;20075;-89
2023/03/24 02:07:46;;;;;;;7.00;3.40;;;;;;;;;;5096525;28;20047;-89
2023/03/24 02:10:15;;;;;;;9.98;4.72;;;;;;;;;;5096390;28;20062;-88
2023/03/24 02:12:43;;;;;;;7.68;4.60;;;;;;;;;;5096501;28;20044;-89
2023/03/24 02:15:11;;;;;;;7.50;4.50;;;;;;;;;;5096087;28;20056;-89
2023/03/24 02:17:57;;;;;;;5.88;4.78;;;;;;;;;;5096704;28;20047;-90
2023/03/24 02:20:44;;;;;;;12.95;4.68;;;;;;;;;;5095950;28;20120;-90
2023/03/24 02:23:36;;;;;;;6.05;5.05;;;;;;;;;;5096594;28;20079;-90
2023/03/24 02:26:06;;;;;;;7.65;4.30;;;;;;;;;;5096366;28;20052;-89
2023/03/24 02:28:49;;;;;;;9.75;5.25;;;;;;;;;;5096165;28;20050;-89
2023/03/24 02:31:35;;;;;;;6.28;5.43;;;;;;;;;;5096334;28;20507;-90
2023/03/24 02:34:21;;;;;;;6.30;4.63;;;;;;;;;;5096332;28;20051;-90
2023/03/24 02:37:01;;;;;;;5.82;4.72;;;;;;;;;;5096541;28;20317;-89
2023/03/24 02:39:36;;;;;;;8.70;5.20;;;;;;;;;;5096429;28;20458;-89
2023/03/24 02:42:08;;;;;;;6.95;4.68;;;;;;;;;;5108012;28;20112;-90
2023/03/24 02:44:55;;;;;;;9.13;5.10;;;;;;;;;;5101467;28;20056;-90
2023/03/24 02:47:31;;;;;;;5.50;4.85;;;;;;;;;;5096827;28;20479;-90
2023/03/24 02:50:05;;;;;;;5.25;4.80;;;;;;;;;;5095777;28;20480;-90
2023/03/24 02:52:39;;;;;;;6.88;4.85;;;;;;;;;;5096044;28;20051;-89
2023/03/24 02:55:14;;;;;;;9.60;4.88;;;;;;;;;;5095646;28;20048;-89
2023/03/24 02:57:46;;;;;;;5.57;4.82;;;;;;;;;;5095486;28;20084;-90
2023/03/24 03:00:19;;;;;;;11.05;5.15;;;;;;;;;;5096588;28;20055;-90
2023/03/24 03:02:56;;;;;;;5.25;4.75;;;;;;;;;;5096030;28;20060;-90
2023/03/24 03:05:39;;;;;;;5.88;4.63;;;;;;;;;;5095326;28;20048;-90
2023/03/24 03:08:09;;;;;;;6.95;4.45;;;;;;;;;;5095404;28;20052;-90
2023/03/24 03:10:41;;;;;;;10.60;4.60;;;;;;;;;;5095359;28;20540;-90
2023/03/24 03:13:16;;;;;;;7.22;3.83;;;;;;;;;;5095482;28;20052;-92
2023/03/24 03:15:43;;;;;;;;;;;;;;;;;;5096656;28;20055;-91
2023/03/24 03:18:16;;;;;;;10.70;5.45;;;;;;;;;;5096169;28;19920;-89
2023/03/24 03:20:49;;;;;;;20.38;5.70;;;;;;;;;;5095243;28;20048;-91
2023/03/24 03:23:18;;;;;;;7.60;5.87;;;;;;;;;;5096264;28;20048;-90
2023/03/24 03:25:49;;;;;;;8.45;6.65;;;;;;;;;;5095402;28;20340;-91
2023/03/24 03:28:20;;;;;;;7.50;6.53;;;;;;;;;;5095225;28;20396;-90
2023/03/24 03:30:54;;;;;;;19.35;9.43;;;;;;;;;;5094798;28;20052;-91
2023/03/24 03:33:25;;;;;;;;;;;;;;;;;;5096398;28;20135;-90
2023/03/24 03:36:02;;;;;;;7.18;5.60;;;;;;;;;;5096445;28;19927;-91
2023/03/24 03:38:46;;;;;;;10.13;6.10;;;;;;;;;;5095120;28;20062;-91
2023/03/24 03:41:15;;;;;;;10.82;5.43;;;;;;;;;;5094711;28;20078;-90
2023/03/24 03:43:42;;;;;;;13.45;5.57;;;;;;;;;;5094863;28;20055;-91
2023/03/24 03:46:10;;;;;;;9.35;5.35;;;;;;;;;;5094560;28;20048;-90
2023/03/24 03:48:38;;;;;;;10.15;5.43;;;;;;;;;;5096053;28;20458;-90
2023/03/24 03:51:06;;;;;;;11.40;5.47;;;;;;;;;;5094564;28;20401;-89
2023/03/24 03:53:43;;;;;;;7.40;5.68;;;;;;;;;;5095394;28;20480;-91
2023/03/24 03:56:17;;;;;;;11.05;6.10;;;;;;;;;;5096223;28;20052;-91
2023/03/24 03:58:46;;;;;;;7.78;5.43;;;;;;;;;;5110138;28;20086;-91
2023/03/24 04:01:15;;;;;;;10.98;6.32;;;;;;;;;;5095404;28;20044;-91
2023/03/24 04:03:50;;;;;;;10.32;6.78;;;;;;;;;;5095833;28;20048;-90
2023/03/24 04:06:25;;;;;;;12.52;7.75;;;;;;;;;;5095424;28;20052;-91
2023/03/24 04:09:00;;;;;;;12.40;7.75;;;;;;;;;;5094215;28;20533;-91
2023/03/24 04:11:46;;;;;;;7.85;5.75;;;;;;;;;;5094412;28;20065;-90
2023/03/24 04:14:32;;;;;;;9.10;5.90;;;;;;;;;;5094156;28;20048;-90
2023/03/24 04:17:02;;;;;;;7.07;4.85;;;;;;;;;;5093534;28;20408;-91
2023/03/24 04:19:46;;;;;;;11.55;5.50;;;;;;;;;;5094284;28;20044;-91
2023/03/24 04:22:24;;;;;;;8.90;5.93;;;;;;;;;;5094065;28;20036;-91
2023/03/24 04:25:11;;;;;;;10.25;5.10;;;;;;;;;;5095595;28;20044;-90
2023/03/24 04:27:47;;;;;;;8.98;6.00;;;;;;;;;;5094054;28;20138;-90
2023/03/24 04:30:25;;;;;;;10.55;5.45;;;;;;;;;;5093789;28;20435;-90
2023/03/24 04:33:27;;;;;;;13.13;6.93;;;;;;;;;;5093978;28;20087;-90
2023/03/24 04:36:05;;;;;;;8.25;6.50;;;;;;;;;;5031498;28;20044;-90
2023/03/24 04:38:35;;;;;;;6.57;5.78;;;;;;;;;;5093763;28;20158;-91
2023/03/24 04:41:04;;;;;;;11.15;6.50;;;;;;;;;;5094094;28;20040;-90
2023/03/24 04:43:35;;;;;;;7.97;6.45;;;;;;;;;;5093924;28;20488;-90
2023/03/24 04:46:04;;;;;;;8.23;6.05;;;;;;;;;;5093717;28;20052;-90
2023/03/24 04:48:31;;;;;;;11.13;7.03;;;;;;;;;;5094628;28;20457;-91
2023/03/24 04:51:00;;;;;;;8.35;6.70;;;;;;;;;;5094522;28;20048;-91
2023/03/24 04:53:28;;;;;;;12.77;8.75;;;;;;;;;;5093380;28;20526;-89
2023/03/24 04:56:02;;;;;;;11.23;8.30;;;;;;;;;;5093561;28;20082;-90
2023/03/24 04:58:29;;;;;;;12.95;7.80;;;;;;;;;;5094151;28;20055;-90
2023/03/24 05:00:57;;;;;;;10.27;8.00;;;;;;;;;;5093165;28;20055;-90
2023/03/24 05:03:25;;;;;;;12.93;8.40;;;;;;;;;;5093387;28;20541;-90
2023/03/24 05:05:52;;;;;;;10.10;7.50;;;;;;;;;;5093027;28;20059;-90
2023/03/24 05:08:20;;;;;;;12.93;7.80;;;;;;;;;;5093124;28;20052;-90
2023/03/24 05:10:47;;;;;;;14.98;8.82;;;;;;;;;;5093143;28;20051;-90
2023/03/24 05:13:15;;;;;;;11.80;8.77;;;;;;;;;;5110822;28;20086;-90
2023/03/24 05:15:42;;;;;;;9.48;8.07;;;;;;;;;;5094505;28;20048;-90
2023/03/24 05:18:10;;;;;;;11.45;9.15;;;;;;;;;;5094216;28;20127;-90
2023/03/24 05:20:38;;;;;;;9.48;7.85;;;;;;;;;;5092886;28;20048;-90
2023/03/24 05:23:05;;;;;;;9.95;7.38;;;;;;;;;;5092887;28;20059;-90
2023/03/24 05:25:32;;;;;;;8.65;6.30;;;;;;;;;;5092624;28;20044;-90
2023/03/24 05:28:00;;;;;;;9.45;5.82;;;;;;;;;;5093424;28;20059;-90
2023/03/24 05:30:27;;;;;;;18.15;6.43;;;;;;;;;;5092694;28;20480;-90
2023/03/24 05:32:54;;;;;;;16.55;6.75;;;;;;;;;;5092767;28;20055;-90
2023/03/24 05:35:23;;;;;;;72.45;10.77;;;;;;;;;;5092292;28;20054;-90
2023/03/24 05:37:50;;;;;;;123.97;25.33;;;;;;;;;;5093189;28;20139;-90
2023/03/24 05:40:18;;;;;;;64.15;22.25;;;;;;;;;;5099968;28;20048;-89
2023/03/24 05:42:48;;;;;;;81.68;17.98;;;;;;;;;;5097787;28;20131;-90
2023/03/24 05:45:15;;;;;;;87.70;15.15;;;;;;;;;;5093144;28;20050;-90
2023/03/24 05:47:42;;;;;;;21.40;7.93;;;;;;;;;;5093646;28;20051;-90
2023/03/24 05:50:10;;;;;;;11.30;8.30;;;;;;;;;;5093322;28;20487;-90
2023/03/24 05:52:37;;;;;;;13.43;8.13;;;;;;;;;;5092413;28;20047;-90
2023/03/24 05:55:06;;;;;;;11.13;8.27;;;;;;;;;;5092415;28;20064;-90
2023/03/24 05:57:35;;;;;;;11.40;8.05;;;;;;;;;;5093774;28;20044;-90
2023/03/24 06:00:15;;;;;;;11.60;8.80;;;;;;;;;;5092595;28;20465;-90
2023/03/24 06:02:43;;;;;;;16.10;10.73;;;;;;;;;;5092377;28;20044;-91
2023/03/24 06:05:11;;;;;;;9.52;8.00;;;;;;;;;;5093171;28;20090;-90
2023/03/24 06:07:41;;;;;;;10.43;8.23;;;;;;;;;;5092823;28;20052;-90
2023/03/24 06:10:10;;;;;;;14.68;8.65;;;;;;;;;;5092426;28;20052;-90
2023/03/24 06:12:37;;;;;;;13.60;9.43;;;;;;;;;;5092777;28;20048;-90
2023/03/24 06:15:05;;;;;;;16.60;8.70;;;;;;;;;;5092270;28;20472;-89
2023/03/24 06:17:33;;;;;;;11.88;8.82;;;;;;;;;;5093442;28;20054;-90
2023/03/24 06:20:04;;;;;;;9.75;7.55;;;;;;;;;;5092234;28;20048;-90
2023/03/24 06:22:32;;;;;;;8.65;7.13;;;;;;;;;;5092643;28;20131;-90
2023/03/24 06:25:01;;;;;;;15.88;8.23;;;;;;;;;;5092226;28;20054;-89
2023/03/24 06:27:29;;;;;;;15.77;7.65;;;;;;;;;;5105160;28;20040;-88
2023/03/24 06:29:56;;;;;;;14.82;7.65;;;;;;;;;;5097917;28;20457;-90
2023/03/24 06:32:24;;;;;;;16.48;8.20;;;;;;;;;;5092602;28;20048;-90
2023/03/24 06:34:51;;;;;;;12.35;8.52;;;;;;;;;;5091792;28;20051;-90
2023/03/24 06:37:20;;;;;;;12.07;6.45;;;;;;;;;;5093612;28;20091;-90
2023/03/24 06:39:48;;;;;;;13.43;7.00;;;;;;;;;;5095002;28;20052;-90
2023/03/24 06:42:17;;;;;;;11.13;6.57;;;;;;;;;;5096767;28;20052;-90
2023/03/24 06:44:44;;;;;;;8.55;5.50;;;;;;;;;;5096711;28;20048;-89
2023/03/24 06:47:11;;;;;;;5.18;4.63;;;;;;;;;;5095630;28;20044;-89
2023/03/24 06:49:39;;;;;;;8.20;4.00;;;;;;;;;;5095899;28;20588;-90
2023/03/24 06:52:06;;;;;;;4.80;2.92;;;;;;;;;;5095510;28;20058;-90
2023/03/24 06:54:33;;;;;;;4.57;2.38;;;;;;;;;;5096671;28;20044;-89
2023/03/24 06:57:00;;;;;;;3.30;2.30;;;;;;;;;;5095621;28;20054;-90
2023/03/24 06:59:28;;;;;;;4.70;2.08;;;;;;;;;;5096203;28;20086;-89
2023/03/24 07:01:55;;;;;;;3.70;2.40;;;;;;;;;;5095305;28;20484;-89
2023/03/24 07:04:24;;;;;;;4.80;2.25;;;;;;;;;;5097923;28;20377;-90
2023/03/24 07:06:52;;;;;;;3.90;2.33;;;;;;;;;;5098013;28;20079;-89
2023/03/24 07:09:39;;;;;;;5.80;2.90;;;;;;;;;;5095293;28;20052;-89
2023/03/24 07:12:06;;;;;;;3.65;2.50;;;;;;;;;;5095135;28;20410;-89
2023/03/24 07:14:33;;;;;;;4.95;3.03;;;;;;;;;;5095243;28;20415;-90
2023/03/24 07:17:01;;;;;;;2.72;2.38;;;;;;;;;;5096352;28;20147;-87
2023/03/24 07:19:28;;;;;;;2.58;2.38;;;;;;;;;;5096554;28;20043;-90
2023/03/24 07:21:56;;;;;;;3.17;2.72;;;;;;;;;;5094977;28;20044;-90
2023/03/24 07:24:23;;;;;;;2.88;2.40;;;;;;;;;;5094884;28;20408;-90
2023/03/24 07:26:50;;;;;;;3.72;2.40;;;;;;;;;;5095091;28;20074;-91
2023/03/24 07:29:17;;;;;;;2.67;2.47;;;;;;;;;;5095215;28;20058;-93
2023/03/24 07:31:47;;;;;;;2.47;2.28;;;;;;;;;;5095034;28;20134;-90
2023/03/24 07:34:14;;;;;;;2.75;2.50;;;;;;;;;;5095101;28;20098;-90
2023/03/24 07:36:42;;;;;;;2.72;2.47;;;;;;;;;;5094729;28;20060;-89
2023/03/24 07:39:09;;;;;;;2.65;2.45;;;;;;;;;;5094459;28;20514;-90
2023/03/24 07:41:36;;;;;;;3.03;2.60;;;;;;;;;;5097559;28;20097;-89
2023/03/24 07:44:04;;;;;;;5.90;4.40;;;;;;;;;;5109943;28;20064;-90
2023/03/24 07:46:31;;;;;;;12.48;10.05;;;;;;;;;;5095449;28;20048;-92
2023/03/24 07:48:58;;;;;;;2.20;2.10;;;;;;;;;;5093568;28;20055;-92
2023/03/24 07:51:42;;;;;;;2.70;2.50;;;;;;;;;;5093885;28;20094;-89
2023/03/24 07:54:10;;;;;;;1.88;1.55;;;;;;;;;;5094510;28;20048;-89
2023/03/24 07:56:40;;;;;;;2.08;1.88;;;;;;;;;;5094728;28;20058;-89
2023/03/24 07:59:08;;;;;;;1.75;1.65;;;;;;;;;;5094314;28;20098;-91
2023/03/24 08:01:37;;;;;;;2.15;1.60;;;;;;;;;;5093991;28;20067;-89
2023/03/24 08:04:05;;;;;;;1.85;1.75;;;;;;;;;;5094261;28;20071;-89
2023/03/24 08:06:33;;;;;;;2.70;2.50;;;;;;;;;;5093581;28;20058;-89
2023/03/24 08:09:01;;;;;;;3.03;2.05;;;;;;;;;;5093858;28;20522;-89
2023/03/24 08:11:28;;;;;;;3.03;2.88;;;;;;;;;;5094054;28;20052;-89
2023/03/24 08:13:57;;;;;;;1.52;1.40;;;;;;;;;;5093893;28;20510;-89
2023/03/24 08:16:24;;;;;;;1.95;1.52;;;;;;;;;;5093933;28;20058;-88
2023/03/24 08:18:51;;;;;;;1.38;1.38;;;;;;;;;;5093810;28;20048;-89
2023/03/24 08:21:19;;;;;;;1.38;1.23;;;;;;;;;;5093823;28;20520;-89
2023/03/24 08:23:47;;;;;;;1.30;1.20;;;;;;;;;;5095334;28;20396;-89
2023/03/24 08:26:14;;;;;;;4.07;1.30;;;;;;;;;;5094738;28;20496;-88
2023/03/24 08:28:42;;;;;;;3.08;1.38;;;;;;;;;;5093770;28;20510;-89
2023/03/24 08:31:09;;;;;;;1.63;1.30;;;;;;;;;;5093737;28;20058;-89
2023/03/24 08:33:36;;;;;;;1.30;1.30;;;;;;;;;;5094184;28;20051;-89
2023/03/24 08:36:03;;;;;;;2.80;1.50;;;;;;;;;;5093261;28;20052;-89
2023/03/24 08:38:31;;;;;;;1.27;1.27;;;;;;;;;;5093861;28;20416;-87
2023/03/24 08:41:00;;;;;;;2.13;1.20;;;;;;;;;;5093595;28;20123;-89
2023/03/24 08:43:29;;;;;;;1.23;1.00;;;;;;;;;;5093265;28;20040;-89
2023/03/24 08:45:57;;;;;;;1.20;1.20;;;;;;;;;;5094411;28;20054;-89
2023/03/24 08:48:25;;;;;;;1.30;0.90;;;;;;;;;;5093482;28;20051;-89
2023/03/24 08:50:52;;;;;;;0.90;0.90;;;;;;;;;;5093496;28;20078;-88
2023/03/24 08:53:23;;;;;;;2.25;0.50;;;;;;;;;;5093764;28;20054;-88
2023/03/24 08:55:51;;;;;;;1.52;0.80;;;;;;;;;;5095391;28;20101;-87
2023/03/24 08:58:19;;;;;;;0.52;0.52;;;;;;;;;;5105325;28;20078;-88
2023/03/24 09:00:47;;;;;;;0.93;0.82;;;;;;;;;;5093356;28;20050;-88
2023/03/24 09:03:17;;;;;;;0.80;0.80;;;;;;;;;;5092625;28;20153;-88
2023/03/24 09:05:46;;;;;;;1.25;0.90;;;;;;;;;;5093215;28;20048;-91
2023/03/24 09:08:15;;;;;;;1.02;1.02;;;;;;;;;;5092831;28;20106;-90
2023/03/24 09:10:45;;;;;;;0.80;0.80;;;;;;;;;;5092760;28;20052;-89
2023/03/24 09:13:13;;;;;;;1.65;1.00;;;;;;;;;;5093219;28;20095;-88
2023/03/24 09:15:45;;;;;;;2.35;0.80;;;;;;;;;;5093098;28;20048;-88
2023/03/24 09:18:12;;;;;;;2.08;1.25;;;;;;;;;;5092919;28;20044;-89
2023/03/24 09:20:39;;;;;;;0.80;0.80;;;;;;;;;;5093640;28;20453;-89
2023/03/24 09:23:07;;;;;;;1.75;0.75;;;;;;;;;;5094440;28;20131;-91
2023/03/24 09:25:34;;;;;;;1.05;0.93;;;;;;;;;;5093509;28;20135;-89
2023/03/24 09:28:01;;;;;;;0.98;0.90;;;;;;;;;;5093892;28;20048;-88
2023/03/24 09:30:29;;;;;;;0.60;0.60;;;;;;;;;;5092739;28;20126;-90
2023/03/24 09:32:58;;;;;;;1.35;0.85;;;;;;;;;;5093763;28;20048;-89
2023/03/24 09:35:26;;;;;;;1.35;0.93;;;;;;;;;;5093732;28;20048;-91
2023/03/24 09:37:54;;;;;;;0.80;0.80;;;;;;;;;;5092582;28;20131;-89
2023/03/24 09:40:23;;;;;;;1.40;0.50;;;;;;;;;;5092487;28;20073;-90
2023/03/24 09:42:54;;;;;;;1.80;0.98;;;;;;;;;;5092794;28;20043;-88
2023/03/24 09:45:23;;;;;;;0.77;0.77;;;;;;;;;;5093141;28;20043;-90
2023/03/24 09:48:03;;;;;;;1.30;1.20;;;;;;;;;;5092739;28;20484;-91
2023/03/24 09:50:34;;;;;;;1.17;0.90;;;;;;;;;;5092494;28;20061;-92
2023/03/24 09:53:07;;;;;;;0.93;0.88;;;;;;;;;;5092961;28;20047;-91
2023/03/24 09:55:37;;;;;;;0.70;0.70;;;;;;;;;;5092696;28;20506;-89
2023/03/24 09:58:09;;;;;;;1.88;0.70;;;;;;;;;;5093751;28;20047;-90
2023/03/24 10:00:36;;;;;;;1.38;1.00;;;;;;;;;;5091986;28;20052;-91
2023/03/24 10:03:13;;;;;;;1.10;1.10;;;;;;;;;;5093853;28;20381;-91
2023/03/24 10:05:47;;;;;;;1.17;0.90;;;;;;;;;;5092481;28;20044;-91
2023/03/24 10:08:15;;;;;;;1.40;1.15;;;;;;;;;;5093721;28;20082;-89
2023/03/24 10:10:54;;;;;;;0.98;0.80;;;;;;;;;;5092435;28;20054;-90
2023/03/24 10:13:48;;;;;;;2.60;0.88;;;;;;;;;;5111285;28;20060;-91
2023/03/24 10:16:18;;;;;;;1.13;0.90;;;;;;;;;;5094682;28;20048;-91
2023/03/24 10:18:53;;;;;;;1.13;1.02;;;;;;;;;;5096057;28;20093;-91
2023/03/24 10:21:21;;;;;;;1.10;0.77;;;;;;;;;;5096618;28;20044;-90
2023/03/24 10:24:01;;;;;;;0.60;0.60;;;;;;;;;;5096136;28;20499;-90
2023/03/24 10:26:28;;;;;;;1.08;0.85;;;;;;;;;;5095862;28;20135;-89
2023/03/24 10:29:15;;;;;;;1.20;1.10;;;;;;;;;;5096687;28;20488;-91
2023/03/24 10:31:45;;;;;;;1.20;1.10;;;;;;;;;;5096708;28;20411;-90
2023/03/24 10:34:13;;;;;;;2.55;1.30;;;;;;;;;;5097328;28;20097;-92
2023/03/24 10:36:40;;;;;;;1.30;1.20;;;;;;;;;;5097260;28;20063;-92
2023/03/24 10:39:13;;;;;;;1.27;0.90;;;;;;;;;;5097558;28;20048;-92
2023/03/24 10:41:48;;;;;;;1.27;1.00;;;;;;;;;;5097260;28;20048;-91
2023/03/24 10:44:16;;;;;;;0.98;0.98;;;;;;;;;;5097238;28;20084;-90
2023/03/24 10:46:46;;;;;;;1.15;0.90;;;;;;;;;;5096257;28;20052;-90
2023/03/24 10:49:13;;;;;;;1.75;1.10;;;;;;;;;;5096388;28;20059;-91
2023/03/24 10:51:45;;;;;;;1.75;1.08;;;;;;;;;;5096165;28;20071;-90
2023/03/24 10:54:17;;;;;;;2.80;1.20;;;;;;;;;;5096571;28;20054;-90
2023/03/24 10:56:49;;;;;;;1.05;1.05;;;;;;;;;;5096719;28;20423;-89
2023/03/24 10:59:35;;;;;;;2.42;1.45;;;;;;;;;;5096293;28;20416;-90
2023/03/24 11:02:08;;;;;;;1.20;1.10;;;;;;;;;;5096048;28;20079;-90
2023/03/24 11:04:39;;;;;;;1.38;1.25;;;;;;;;;;5096861;28;20132;-90
2023/03/24 11:07:21;;;;;;;1.45;1.10;;;;;;;;;;5095338;28;20048;-90
2023/03/24 11:10:00;;;;;;;1.15;0.95;;;;;;;;;;5095984;28;20107;-89
2023/03/24 11:12:29;;;;;;;2.72;1.33;;;;;;;;;;5095818;28;20052;-89
2023/03/24 11:15:16;;;;;;;1.20;1.17;;;;;;;;;;5095362;28;20048;-91
2023/03/24 11:17:53;;;;;;;1.40;1.30;;;;;;;;;;5094844;28;20098;-89
2023/03/24 11:20:25;;;;;;;1.10;1.10;;;;;;;;;;5097099;28;20047;-90
2023/03/24 11:23:11;;;;;;;2.25;1.27;;;;;;;;;;5095366;28;20058;-89
2023/03/24 11:25:40;;;;;;;1.20;1.10;;;;;;;;;;5094500;28;20482;-93
2023/03/24 11:28:16;;;;;;;1.50;1.20;;;;;;;;;;5112297;28;20112;-90
2023/03/24 11:30:50;;;;;;;1.55;1.10;;;;;;;;;;5097590;28;20039;-90
2023/03/24 11:33:19;;;;;;;1.08;1.08;;;;;;;;;;5095060;28;20052;-90
2023/03/24 11:36:21;;;;;;;0.88;0.80;;;;;;;;;;5095658;28;20044;-90
2023/03/24 11:38:57;;;;;;;3.00;0.88;;;;;;;;;;5095890;28;20408;-88
2023/03/24 11:41:25;;;;;;;5.15;1.00;;;;;;;;;;5082341;28;20131;-89
2023/03/24 11:44:07;;;;;;;1.30;1.20;;;;;;;;;;5096462;28;20492;-91
2023/03/24 11:46:35;;;;;;;1.88;1.10;;;;;;;;;;5095727;28;20044;-90
2023/03/24 11:49:04;;;;;;;1.27;1.17;;;;;;;;;;5095390;28;20091;-92
2023/03/24 11:51:34;;;;;;;0.88;0.88;;;;;;;;;;5095095;28;20044;-91
2023/03/24 11:54:03;;;;;;;2.75;1.00;;;;;;;;;;5094509;28;20095;-91
2023/03/24 11:56:37;;;;;;;1.80;1.17;;;;;;;;;;5094354;28;20050;-91
2023/03/24 11:59:10;;;;;;;1.95;1.60;;;;;;;;;;5094866;28;20044;-90
2023/03/24 12:01:39;;;;;;;2.38;1.05;;;;;;;;;;5095971;28;20064;-91
2023/03/24 12:04:17;;;;;;;2.88;1.02;;;;;;;;;;5094426;28;20044;-90
2023/03/24 12:06:53;;;;;;;0.75;0.75;;;;;;;;;;5095531;28;20071;-90
2023/03/24 12:09:31;;;;;;;1.10;1.00;;;;;;;;;;5094894;28;20434;-90
2023/03/24 12:12:08;;;;;;;2.50;2.20;;;;;;;;;;5094271;28;20419;-90
2023/03/24 12:14:51;;;;;;;3.13;1.08;;;;;;;;;;5095551;28;20051;-93
2023/03/24 12:17:28;;;;;;;3.67;0.60;;;;;;;;;;5095202;28;20408;-91
2023/03/24 12:20:04;;;;;;;2.50;0.70;;;;;;;;;;5095851;28;20079;-92
2023/03/24 12:22:36;;;;;;;2.90;0.68;;;;;;;;;;5094392;28;20070;-90
2023/03/24 12:25:20;;;;;;;1.48;0.73;;;;;;;;;;5094174;28;20520;-89
2023/03/24 12:27:53;;;;;;;3.13;0.80;;;;;;;;;;5094904;28;20472;-91
2023/03/24 12:30:29;;;;;;;1.67;0.60;;;;;;;;;;5094005;28;20484;-92
2023/03/24 12:32:57;;;;;;;2.80;0.60;;;;;;;;;;5093768;28;20310;-91
2023/03/24 12:35:34;;;;;;;1.48;0.40;;;;;;;;;;5093864;28;20101;-91
2023/03/24 12:38:04;;;;;;;1.25;0.50;;;;;;;;;;5093434;28;20507;-91
2023/03/24 12:40:47;;;;;;;2.60;0.55;;;;;;;;;;5093757;28;20044;-92
2023/03/24 12:43:33;;;;;;;1.83;0.50;;;;;;;;;;5111362;28;20052;-93
2023/03/24 12:46:06;;;;;;;1.92;0.30;;;;;;;;;;5094855;28;20119;-93
2023/03/24 12:48:44;;;;;;;2.80;0.30;;;;;;;;;;5094132;28;20055;-95
2023/03/24 12:51:14;;;;;;;0.20;0.10;;;;;;;;;;5093948;28;20301;-93
2023/03/24 12:53:41;;;;;;;0.50;0.20;;;;;;;;;;5093530;28;20044;-93
2023/03/24 12:56:19;;;;;;;1.08;0.70;;;;;;;;;;5093868;28;20131;-93
2023/03/24 12:58:51;;;;;;;2.05;0.43;;;;;;;;;;5093858;28;20075;-92
2023/03/24 13:01:23;;;;;;;0.30;0.20;;;;;;;;;;5094046;28;20116;-93
2023/03/24 13:03:55;;;;;;;3.65;0.22;;;;;;;;;;5094417;28;20075;-92
2023/03/24 13:06:25;;;;;;;0.45;0.30;;;;;;;;;;5093810;28;20479;-93
2023/03/24 13:09:04;;;;;;;0.47;0.20;;;;;;;;;;5093816;28;20426;-93
2023/03/24 13:11:36;;;;;;;0.05;0.05;;;;;;;;;;5094009;28;20056;-94
2023/03/24 13:14:04;;;;;;;0.30;0.30;;;;;;;;;;5093746;28;20411;-92
2023/03/24 13:16:33;;;;;;;0.35;0.20;;;;;;;;;;5093604;28;20044;-94
2023/03/24 13:19:02;;;;;;;0.30;0.30;;;;;;;;;;5095298;28;20101;-93
2023/03/24 13:21:33;;;;;;;3.05;0.60;;;;;;;;;;5094323;28;20052;-92
2023/03/24 13:24:08;;;;;;;2.63;0.65;;;;;;;;;;5093904;28;20074;-92
2023/03/24 13:26:41;;;;;;;1.65;0.45;;;;;;;;;;5093636;28;20439;-92
2023/03/24 13:29:11;;;;;;;0.30;0.30;;;;;;;;;;5093335;28;20110;-93
2023/03/24 13:31:44;;;;;;;1.00;0.25;;;;;;;;;;5093238;28;20547;-92
2023/03/24 13:34:20;;;;;;;1.33;0.20;;;;;;;;;;5093581;28;20683;-92
2023/03/24 13:36:50;;;;;;;3.08;0.88;;;;;;;;;;5092839;28;20054;-92
2023/03/24 13:39:19;;;;;;;2.05;0.60;;;;;;;;;;5093003;28;20515;-93
2023/03/24 13:41:50;;;;;;;0.82;0.40;;;;;;;;;;5093030;28;20127;-92
2023/03/24 13:44:19;;;;;;;2.38;0.40;;;;;;;;;;5092771;28;20064;-92
2023/03/24 13:47:02;;;;;;;1.58;0.47;;;;;;;;;;5092830;28;20091;-93
2023/03/24 13:49:30;;;;;;;1.83;0.55;;;;;;;;;;5097256;28;20438;-91
2023/03/24 13:52:02;;;;;;;0.57;0.50;;;;;;;;;;5099278;28;20067;-91
2023/03/24 13:54:30;;;;;;;1.17;0.52;;;;;;;;;;5099748;28;20058;-91
2023/03/24 13:57:00;;;;;;;1.35;0.40;;;;;;;;;;5111803;28;20054;-90
2023/03/24 13:59:27;;;;;;;3.03;0.40;;;;;;;;;;5109358;28;20044;-91
2023/03/24 14:02:13;;;;;;;4.95;0.80;;;;;;;;;;5100609;28;20052;-92
2023/03/24 14:04:48;;;;;;;0.30;0.30;;;;;;;;;;5099195;28;20101;-91
2023/03/24 14:07:34;;;;;;;2.28;0.35;;;;;;;;;;5099646;28;20484;-90
2023/03/24 14:10:22;;;;;;;2.42;0.60;;;;;;;;;;5100544;28;20131;-92
2023/03/24 14:13:01;;;;;;;2.15;0.35;;;;;;;;;;5087149;28;20054;-92
2023/03/24 14:15:32;;;;;;;0.40;0.40;;;;;;;;;;5101833;28;20083;-93
2023/03/24 14:18:19;;;;;;;0.35;0.35;;;;;;;;;;5103360;28;20043;-92
2023/03/24 14:21:07;;;;;;;0.45;0.40;;;;;;;;;;5100901;28;20139;-90
2023/03/24 14:23:36;;;;;;;0.60;0.47;;;;;;;;;;5099115;28;20139;-90
2023/03/24 14:26:04;;;;;;;1.10;0.40;;;;;;;;;;5099133;28;20051;-90
2023/03/24 14:28:39;;;;;;;0.98;0.30;;;;;;;;;;5099075;28;20044;-89
2023/03/24 14:31:14;;;;;;;0.47;0.35;;;;;;;;;;5099014;28;20051;-89
2023/03/24 14:34:00;;;;;;;0.45;0.40;;;;;;;;;;5098731;28;20555;-89
2023/03/24 14:36:40;;;;;;;0.43;0.40;;;;;;;;;;5098945;28;20056;-90
2023/03/24 14:39:07;;;;;;;0.47;0.45;;;;;;;;;;5098913;28;20056;-89
2023/03/24 14:41:38;;;;;;;1.25;0.80;;;;;;;;;;5102247;28;20480;-89
2023/03/24 14:44:05;;;;;;;0.93;0.57;;;;;;;;;;5098696;28;20048;-89
2023/03/24 14:46:37;;;;;;;1.05;0.52;;;;;;;;;;5098956;28;20071;-89
2023/03/24 14:49:08;;;;;;;1.27;0.70;;;;;;;;;;5099011;28;20060;-89
2023/03/24 14:51:38;;;;;;;1.52;0.57;;;;;;;;;;5098892;28;20048;-89
2023/03/24 14:54:12;;;;;;;1.73;0.50;;;;;;;;;;5098532;28;20075;-89
2023/03/24 14:56:41;;;;;;;1.08;0.55;;;;;;;;;;5098970;28;20135;-91
2023/03/24 14:59:10;;;;;;;5.93;1.02;;;;;;;;;;5098714;28;20481;-91
2023/03/24 15:01:37;;;;;;;1.58;0.30;;;;;;;;;;5095714;28;20131;-91
2023/03/24 15:04:06;;;;;;;3.33;0.57;;;;;;;;;;5095736;28;20121;-91
2023/03/24 15:06:42;;;;;;;3.38;0.65;;;;;;;;;;5095716;28;20134;-90